sensor_id;sensor_type;location;lat;lon;timestamp;pressure;altitude;pressure_sealevel;temperature;humidity
20350;BME280;10332;50.208;18.988;2023-06-14T00:02:01;97956.69;;;12.23;97.23
20350;BME280;10332;50.208;18.988;2023-06-14T00:04:28;97956.56;;;12.25;97.10
20350;BME280;10332;50.208;18.988;2023-06-14T00:06:58;97950.13;;;12.29;97.38
20350;BME280;10332;50.208;18.988;2023-06-14T00:09:26;97954.88;;;12.35;96.76
20350;BME280;10332;50.208;18.988;2023-06-14T00:11:54;97955.25;;;12.41;96.63
20350;BME280;10332;50.208;18.988;2023-06-14T00:14:21;97947.03;;;12.35;96.78
20350;BME280;10332;50.208;18.988;2023-06-14T00:16:49;97957.25;;;12.38;96.74
20350;BME280;10332;50.208;18.988;2023-06-14T00:19:16;97957.63;;;12.33;96.30
20350;BME280;10332;50.208;18.988;2023-06-14T00:21:44;97947.16;;;12.33;96.51
20350;BME280;10332;50.208;18.988;2023-06-14T00:24:12;97953.09;;;12.35;96.76
20350;BME280;10332;50.208;18.988;2023-06-14T00:26:40;97948.00;;;12.34;96.81
20350;BME280;10332;50.208;18.988;2023-06-14T00:29:07;97954.63;;;12.38;96.22
20350;BME280;10332;50.208;18.988;2023-06-14T00:31:35;97951.81;;;12.41;96.27
20350;BME280;10332;50.208;18.988;2023-06-14T00:34:02;97947.50;;;12.40;96.32
20350;BME280;10332;50.208;18.988;2023-06-14T00:36:30;97950.09;;;12.40;96.32
20350;BME280;10332;50.208;18.988;2023-06-14T00:38:57;97949.19;;;12.41;96.08
20350;BME280;10332;50.208;18.988;2023-06-14T00:41:25;97943.13;;;12.40;96.27
20350;BME280;10332;50.208;18.988;2023-06-14T00:43:52;97945.59;;;12.42;95.82
20350;BME280;10332;50.208;18.988;2023-06-14T00:46:20;97941.09;;;12.44;95.75
20350;BME280;10332;50.208;18.988;2023-06-14T00:48:49;97943.22;;;12.50;95.20
20350;BME280;10332;50.208;18.988;2023-06-14T00:51:17;97937.38;;;12.46;95.17
20350;BME280;10332;50.208;18.988;2023-06-14T00:53:45;97933.69;;;12.49;94.89
20350;BME280;10332;50.208;18.988;2023-06-14T00:56:15;97931.06;;;12.49;94.66
20350;BME280;10332;50.208;18.988;2023-06-14T00:58:43;97942.16;;;12.53;94.16
20350;BME280;10332;50.208;18.988;2023-06-14T01:01:11;97940.25;;;12.55;93.87
20350;BME280;10332;50.208;18.988;2023-06-14T01:03:38;97936.06;;;12.52;93.87
20350;BME280;10332;50.208;18.988;2023-06-14T01:09:21;97944.91;;;12.51;93.36
20350;BME280;10332;50.208;18.988;2023-06-14T01:12:15;97934.63;;;12.48;93.39
20350;BME280;10332;50.208;18.988;2023-06-14T01:14:49;97939.88;;;12.48;93.43
20350;BME280;10332;50.208;18.988;2023-06-14T01:17:17;97929.06;;;12.41;93.70
20350;BME280;10332;50.208;18.988;2023-06-14T01:19:46;97930.94;;;12.39;93.96
20350;BME280;10332;50.208;18.988;2023-06-14T01:22:14;97925.38;;;12.33;94.02
20350;BME280;10332;50.208;18.988;2023-06-14T01:24:42;97929.44;;;12.26;94.29
20350;BME280;10332;50.208;18.988;2023-06-14T01:27:13;97934.41;;;12.29;94.10
20350;BME280;10332;50.208;18.988;2023-06-14T01:29:43;97935.00;;;12.21;93.98
20350;BME280;10332;50.208;18.988;2023-06-14T01:32:13;97935.97;;;12.20;94.05
20350;BME280;10332;50.208;18.988;2023-06-14T01:34:41;97928.22;;;12.18;94.04
20350;BME280;10332;50.208;18.988;2023-06-14T01:37:12;97930.72;;;12.20;93.71
20350;BME280;10332;50.208;18.988;2023-06-14T01:39:43;97931.34;;;12.24;93.59
20350;BME280;10332;50.208;18.988;2023-06-14T01:42:13;97936.31;;;12.27;93.13
20350;BME280;10332;50.208;18.988;2023-06-14T01:44:43;97935.75;;;12.23;93.14
20350;BME280;10332;50.208;18.988;2023-06-14T01:47:12;97927.63;;;12.26;92.74
20350;BME280;10332;50.208;18.988;2023-06-14T01:49:39;97934.41;;;12.29;92.66
20350;BME280;10332;50.208;18.988;2023-06-14T01:52:07;97932.50;;;12.31;92.42
20350;BME280;10332;50.208;18.988;2023-06-14T01:54:37;97922.03;;;12.31;92.14
20350;BME280;10332;50.208;18.988;2023-06-14T01:57:09;97923.94;;;12.29;92.04
20350;BME280;10332;50.208;18.988;2023-06-14T01:59:37;97927.03;;;12.34;91.80
20350;BME280;10332;50.208;18.988;2023-06-14T02:02:05;97925.25;;;12.34;91.67
20350;BME280;10332;50.208;18.988;2023-06-14T02:04:32;97929.53;;;12.35;91.03
20350;BME280;10332;50.208;18.988;2023-06-14T02:07:00;97924.31;;;12.35;91.23
20350;BME280;10332;50.208;18.988;2023-06-14T02:09:27;97930.25;;;12.37;91.02
20350;BME280;10332;50.208;18.988;2023-06-14T02:11:55;97934.31;;;12.41;90.70
20350;BME280;10332;50.208;18.988;2023-06-14T02:14:23;97931.44;;;12.44;90.57
20350;BME280;10332;50.208;18.988;2023-06-14T02:16:50;97923.34;;;12.47;90.38
20350;BME280;10332;50.208;18.988;2023-06-14T02:19:20;97919.16;;;12.56;90.10
20350;BME280;10332;50.208;18.988;2023-06-14T02:21:47;97923.34;;;12.59;90.14
20350;BME280;10332;50.208;18.988;2023-06-14T02:24:15;97929.88;;;12.64;90.06
20350;BME280;10332;50.208;18.988;2023-06-14T02:26:43;97924.41;;;12.67;89.84
20350;BME280;10332;50.208;18.988;2023-06-14T02:29:10;97929.25;;;12.72;89.87
20350;BME280;10332;50.208;18.988;2023-06-14T02:31:40;97912.22;;;12.77;89.61
20350;BME280;10332;50.208;18.988;2023-06-14T02:34:08;97923.41;;;12.79;89.60
20350;BME280;10332;50.208;18.988;2023-06-14T02:36:37;97919.59;;;12.84;89.14
20350;BME280;10332;50.208;18.988;2023-06-14T02:39:09;97925.31;;;12.89;89.15
20350;BME280;10332;50.208;18.988;2023-06-14T02:41:38;97925.03;;;12.92;88.96
20350;BME280;10332;50.208;18.988;2023-06-14T02:44:06;97925.03;;;12.92;88.99
20350;BME280;10332;50.208;18.988;2023-06-14T02:46:34;97921.59;;;12.91;88.95
20350;BME280;10332;50.208;18.988;2023-06-14T02:49:01;97915.53;;;12.91;89.29
20350;BME280;10332;50.208;18.988;2023-06-14T02:51:29;97916.94;;;12.95;88.95
20350;BME280;10332;50.208;18.988;2023-06-14T02:53:57;97915.75;;;12.99;88.92
20350;BME280;10332;50.208;18.988;2023-06-14T02:56:24;97924.06;;;13.04;88.80
20350;BME280;10332;50.208;18.988;2023-06-14T02:58:53;97921.19;;;13.07;88.62
20350;BME280;10332;50.208;18.988;2023-06-14T03:01:21;97918.31;;;13.10;88.69
20350;BME280;10332;50.208;18.988;2023-06-14T03:03:49;97917.94;;;13.15;88.71
20350;BME280;10332;50.208;18.988;2023-06-14T03:06:16;97914.13;;;13.19;88.49
20350;BME280;10332;50.208;18.988;2023-06-14T03:08:44;97917.25;;;13.24;88.42
20350;BME280;10332;50.208;18.988;2023-06-14T03:11:12;97914.13;;;13.30;88.30
20350;BME280;10332;50.208;18.988;2023-06-14T03:13:39;97912.50;;;13.39;88.14
20350;BME280;10332;50.208;18.988;2023-06-14T03:16:08;97910.34;;;13.44;87.94
20350;BME280;10332;50.208;18.988;2023-06-14T03:18:37;97909.25;;;13.46;88.19
20350;BME280;10332;50.208;18.988;2023-06-14T03:21:04;97913.44;;;13.49;88.14
20350;BME280;10332;50.208;18.988;2023-06-14T03:23:32;97922.69;;;13.53;87.92
20350;BME280;10332;50.208;18.988;2023-06-14T03:25:59;97922.91;;;13.61;87.83
20350;BME280;10332;50.208;18.988;2023-06-14T03:28:26;97916.31;;;13.67;87.64
20350;BME280;10332;50.208;18.988;2023-06-14T03:30:55;97920.47;;;13.69;87.79
20350;BME280;10332;50.208;18.988;2023-06-14T03:33:23;97915.66;;;13.74;87.64
20350;BME280;10332;50.208;18.988;2023-06-14T03:35:52;97918.59;;;13.81;87.55
20350;BME280;10332;50.208;18.988;2023-06-14T03:38:20;97927.75;;;13.86;87.58
20350;BME280;10332;50.208;18.988;2023-06-14T03:40:47;97927.50;;;13.89;87.36
20350;BME280;10332;50.208;18.988;2023-06-14T03:43:15;97923.78;;;13.92;87.18
20350;BME280;10332;50.208;18.988;2023-06-14T03:45:42;97929.59;;;13.96;87.38
20350;BME280;10332;50.208;18.988;2023-06-14T03:48:10;97928.00;;;14.04;87.03
20350;BME280;10332;50.208;18.988;2023-06-14T03:50:38;97929.72;;;14.15;86.78
20350;BME280;10332;50.208;18.988;2023-06-14T03:53:06;97930.44;;;14.27;86.69
20350;BME280;10332;50.208;18.988;2023-06-14T03:55:34;97922.34;;;14.39;86.43
20350;BME280;10332;50.208;18.988;2023-06-14T03:58:05;97923.00;;;14.62;86.41
20350;BME280;10332;50.208;18.988;2023-06-14T04:00:32;97923.47;;;14.77;85.93
20350;BME280;10332;50.208;18.988;2023-06-14T04:03:00;97930.69;;;14.85;86.10
20350;BME280;10332;50.208;18.988;2023-06-14T04:05:28;97934.13;;;14.85;85.79
20350;BME280;10332;50.208;18.988;2023-06-14T04:07:56;97930.09;;;14.81;85.63
20350;BME280;10332;50.208;18.988;2023-06-14T04:10:24;97934.38;;;14.82;85.85
20350;BME280;10332;50.208;18.988;2023-06-14T04:12:51;97937.00;;;14.82;85.86
20350;BME280;10332;50.208;18.988;2023-06-14T04:15:19;97938.56;;;14.85;85.40
20350;BME280;10332;50.208;18.988;2023-06-14T04:17:48;97934.81;;;14.87;85.57
20350;BME280;10332;50.208;18.988;2023-06-14T04:20:16;97936.91;;;14.93;85.42
20350;BME280;10332;50.208;18.988;2023-06-14T04:22:44;97937.63;;;14.95;85.41
20350;BME280;10332;50.208;18.988;2023-06-14T04:25:11;97940.53;;;15.02;85.07
20350;BME280;10332;50.208;18.988;2023-06-14T04:27:39;97941.38;;;15.02;85.67
20350;BME280;10332;50.208;18.988;2023-06-14T04:30:07;97938.88;;;15.01;85.78
20350;BME280;10332;50.208;18.988;2023-06-14T04:32:35;97935.66;;;14.97;85.97
20350;BME280;10332;50.208;18.988;2023-06-14T04:35:08;97929.88;;;15.03;85.92
20350;BME280;10332;50.208;18.988;2023-06-14T04:37:35;97926.44;;;15.13;85.74
20350;BME280;10332;50.208;18.988;2023-06-14T04:40:08;97925.59;;;15.22;85.75
20350;BME280;10332;50.208;18.988;2023-06-14T04:42:39;97927.41;;;15.31;85.52
20350;BME280;10332;50.208;18.988;2023-06-14T04:45:08;97930.44;;;15.36;85.59
20350;BME280;10332;50.208;18.988;2023-06-14T04:47:36;97931.41;;;15.35;85.76
20350;BME280;10332;50.208;18.988;2023-06-14T04:50:05;97935.28;;;15.41;85.35
20350;BME280;10332;50.208;18.988;2023-06-14T04:52:32;97942.63;;;15.56;85.29
20350;BME280;10332;50.208;18.988;2023-06-14T04:55:00;97942.63;;;15.56;85.40
20350;BME280;10332;50.208;18.988;2023-06-14T04:57:29;97943.91;;;15.62;85.38
20350;BME280;10332;50.208;18.988;2023-06-14T04:59:56;97939.75;;;15.69;85.21
20350;BME280;10332;50.208;18.988;2023-06-14T05:02:25;97936.00;;;15.72;85.16
20350;BME280;10332;50.208;18.988;2023-06-14T05:04:53;97940.84;;;15.67;85.63
20350;BME280;10332;50.208;18.988;2023-06-14T05:07:21;97939.72;;;15.59;86.25
20350;BME280;10332;50.208;18.988;2023-06-14T05:09:51;97944.00;;;15.51;86.17
20350;BME280;10332;50.208;18.988;2023-06-14T05:12:18;97948.59;;;15.39;86.59
20350;BME280;10332;50.208;18.988;2023-06-14T05:14:46;97952.59;;;15.43;86.52
20350;BME280;10332;50.208;18.988;2023-06-14T05:17:14;97953.16;;;15.47;86.38
20350;BME280;10332;50.208;18.988;2023-06-14T05:19:44;97955.50;;;15.50;86.27
20350;BME280;10332;50.208;18.988;2023-06-14T05:22:11;97955.38;;;15.51;86.12
20350;BME280;10332;50.208;18.988;2023-06-14T05:24:39;97948.72;;;15.57;86.04
20350;BME280;10332;50.208;18.988;2023-06-14T05:27:06;97962.19;;;15.64;86.28
20350;BME280;10332;50.208;18.988;2023-06-14T05:29:34;97948.59;;;15.68;86.26
20350;BME280;10332;50.208;18.988;2023-06-14T05:32:01;97956.19;;;15.81;86.21
20350;BME280;10332;50.208;18.988;2023-06-14T05:34:29;97956.63;;;15.86;85.99
20350;BME280;10332;50.208;18.988;2023-06-14T05:36:56;97967.00;;;15.97;86.20
20350;BME280;10332;50.208;18.988;2023-06-14T05:39:24;97964.34;;;15.97;86.33
20350;BME280;10332;50.208;18.988;2023-06-14T05:41:51;97961.84;;;16.05;86.11
20350;BME280;10332;50.208;18.988;2023-06-14T05:44:19;97966.13;;;16.16;85.81
20350;BME280;10332;50.208;18.988;2023-06-14T05:46:47;97963.19;;;16.29;85.43
20350;BME280;10332;50.208;18.988;2023-06-14T05:49:15;97964.34;;;16.44;85.12
20350;BME280;10332;50.208;18.988;2023-06-14T05:51:42;97970.97;;;16.58;84.76
20350;BME280;10332;50.208;18.988;2023-06-14T05:54:10;97971.00;;;16.48;86.01
20350;BME280;10332;50.208;18.988;2023-06-14T05:56:37;97965.25;;;16.62;84.96
20350;BME280;10332;50.208;18.988;2023-06-14T05:59:05;97971.06;;;16.76;84.35
20350;BME280;10332;50.208;18.988;2023-06-14T06:01:32;97969.41;;;16.74;84.54
20350;BME280;10332;50.208;18.988;2023-06-14T06:04:01;97969.56;;;16.63;84.54
20350;BME280;10332;50.208;18.988;2023-06-14T06:06:29;97972.38;;;16.52;85.04
20350;BME280;10332;50.208;18.988;2023-06-14T06:08:56;97976.53;;;16.55;85.22
20350;BME280;10332;50.208;18.988;2023-06-14T06:11:24;97970.81;;;16.59;85.20
20350;BME280;10332;50.208;18.988;2023-06-14T06:13:53;97970.44;;;16.54;85.23
20350;BME280;10332;50.208;18.988;2023-06-14T06:16:20;97971.69;;;16.50;85.29
20350;BME280;10332;50.208;18.988;2023-06-14T06:18:48;97970.19;;;16.48;85.25
20350;BME280;10332;50.208;18.988;2023-06-14T06:21:15;97969.53;;;16.36;85.90
20350;BME280;10332;50.208;18.988;2023-06-14T06:23:43;97974.25;;;16.32;85.78
20350;BME280;10332;50.208;18.988;2023-06-14T06:26:10;97978.69;;;16.32;86.22
20350;BME280;10332;50.208;18.988;2023-06-14T06:28:38;97983.66;;;16.35;85.83
20350;BME280;10332;50.208;18.988;2023-06-14T06:31:05;97980.09;;;16.36;86.38
20350;BME280;10332;50.208;18.988;2023-06-14T06:33:33;97990.03;;;16.42;86.78
20350;BME280;10332;50.208;18.988;2023-06-14T06:36:00;97984.22;;;16.38;87.31
20350;BME280;10332;50.208;18.988;2023-06-14T06:38:28;97988.13;;;16.25;87.45
20350;BME280;10332;50.208;18.988;2023-06-14T06:40:56;97985.50;;;16.25;87.64
20350;BME280;10332;50.208;18.988;2023-06-14T06:43:24;97990.09;;;16.23;87.51
20350;BME280;10332;50.208;18.988;2023-06-14T06:45:52;97989.13;;;16.24;87.50
20350;BME280;10332;50.208;18.988;2023-06-14T06:48:19;97995.50;;;16.21;87.73
20350;BME280;10332;50.208;18.988;2023-06-14T06:50:47;97989.41;;;16.21;87.46
20350;BME280;10332;50.208;18.988;2023-06-14T06:53:14;97999.25;;;16.18;87.56
20350;BME280;10332;50.208;18.988;2023-06-14T06:55:47;97992.72;;;16.23;87.84
20350;BME280;10332;50.208;18.988;2023-06-14T06:58:14;97994.00;;;16.18;88.27
20350;BME280;10332;50.208;18.988;2023-06-14T07:00:42;97990.91;;;16.33;87.61
20350;BME280;10332;50.208;18.988;2023-06-14T07:03:09;98000.84;;;16.49;87.43
20350;BME280;10332;50.208;18.988;2023-06-14T07:05:37;97995.50;;;16.68;86.80
20350;BME280;10332;50.208;18.988;2023-06-14T07:08:05;98004.38;;;16.77;86.75
20350;BME280;10332;50.208;18.988;2023-06-14T07:10:33;98001.16;;;16.83;86.59
20350;BME280;10332;50.208;18.988;2023-06-14T07:13:01;97994.75;;;16.85;86.71
20350;BME280;10332;50.208;18.988;2023-06-14T07:15:28;98008.81;;;16.76;86.93
20350;BME280;10332;50.208;18.988;2023-06-14T07:17:55;98004.09;;;16.70;87.29
20350;BME280;10332;50.208;18.988;2023-06-14T07:20:27;98012.31;;;16.57;88.04
20350;BME280;10332;50.208;18.988;2023-06-14T07:22:55;98005.78;;;16.61;87.83
20350;BME280;10332;50.208;18.988;2023-06-14T07:25:22;98013.84;;;16.60;88.29
20350;BME280;10332;50.208;18.988;2023-06-14T07:27:50;98009.53;;;16.59;87.95
20350;BME280;10332;50.208;18.988;2023-06-14T07:30:17;98017.19;;;16.52;88.13
20350;BME280;10332;50.208;18.988;2023-06-14T07:32:45;98023.59;;;16.50;88.31
20350;BME280;10332;50.208;18.988;2023-06-14T07:35:13;98027.19;;;16.49;88.62
20350;BME280;10332;50.208;18.988;2023-06-14T07:37:41;98024.97;;;16.54;88.30
20350;BME280;10332;50.208;18.988;2023-06-14T07:40:09;98025.19;;;16.60;88.27
20350;BME280;10332;50.208;18.988;2023-06-14T07:42:37;98029.91;;;16.66;88.12
20350;BME280;10332;50.208;18.988;2023-06-14T07:45:06;98031.31;;;16.70;87.57
20350;BME280;10332;50.208;18.988;2023-06-14T07:47:34;98029.53;;;16.52;88.80
20350;BME280;10332;50.208;18.988;2023-06-14T07:50:02;98042.19;;;16.48;89.07
20350;BME280;10332;50.208;18.988;2023-06-14T07:52:30;98043.03;;;16.39;89.60
20350;BME280;10332;50.208;18.988;2023-06-14T07:54:58;98042.16;;;16.58;88.33
20350;BME280;10332;50.208;18.988;2023-06-14T07:57:26;98040.97;;;16.80;87.83
20350;BME280;10332;50.208;18.988;2023-06-14T07:59:53;98044.97;;;16.93;87.18
20350;BME280;10332;50.208;18.988;2023-06-14T08:02:21;98041.00;;;17.07;86.28
20350;BME280;10332;50.208;18.988;2023-06-14T08:04:48;98040.47;;;17.03;86.94
20350;BME280;10332;50.208;18.988;2023-06-14T08:07:16;98039.78;;;17.01;86.92
20350;BME280;10332;50.208;18.988;2023-06-14T08:09:43;98035.66;;;16.99;86.92
20350;BME280;10332;50.208;18.988;2023-06-14T08:12:11;98033.00;;;16.99;86.91
20350;BME280;10332;50.208;18.988;2023-06-14T08:14:42;98036.13;;;16.85;86.97
20350;BME280;10332;50.208;18.988;2023-06-14T08:17:09;98036.00;;;16.77;87.35
20350;BME280;10332;50.208;18.988;2023-06-14T08:19:37;98031.38;;;16.88;87.02
20350;BME280;10332;50.208;18.988;2023-06-14T08:22:05;98035.28;;;16.84;86.81
20350;BME280;10332;50.208;18.988;2023-06-14T08:24:32;98035.44;;;16.83;87.08
20350;BME280;10332;50.208;18.988;2023-06-14T08:27:03;98036.91;;;16.95;86.91
20350;BME280;10332;50.208;18.988;2023-06-14T08:29:30;98035.84;;;17.33;85.65
20350;BME280;10332;50.208;18.988;2023-06-14T08:31:58;98036.28;;;18.09;83.34
20350;BME280;10332;50.208;18.988;2023-06-14T08:34:25;98040.41;;;18.56;81.10
20350;BME280;10332;50.208;18.988;2023-06-14T08:36:53;98034.53;;;18.96;81.16
20350;BME280;10332;50.208;18.988;2023-06-14T08:39:21;98041.72;;;19.20;79.64
20350;BME280;10332;50.208;18.988;2023-06-14T08:41:52;98044.38;;;19.20;78.50
20350;BME280;10332;50.208;18.988;2023-06-14T08:44:19;98047.66;;;19.14;76.90
20350;BME280;10332;50.208;18.988;2023-06-14T08:46:48;98044.84;;;19.07;77.50
20350;BME280;10332;50.208;18.988;2023-06-14T08:49:17;98058.19;;;18.97;77.90
20350;BME280;10332;50.208;18.988;2023-06-14T08:51:45;98054.75;;;18.71;78.18
20350;BME280;10332;50.208;18.988;2023-06-14T08:54:15;98056.88;;;18.50;78.97
20350;BME280;10332;50.208;18.988;2023-06-14T08:56:43;98061.16;;;18.42;79.19
20350;BME280;10332;50.208;18.988;2023-06-14T08:59:11;98069.84;;;18.35;79.62
20350;BME280;10332;50.208;18.988;2023-06-14T09:01:39;98073.34;;;18.18;79.80
20350;BME280;10332;50.208;18.988;2023-06-14T09:04:18;98072.75;;;18.06;80.38
20350;BME280;10332;50.208;18.988;2023-06-14T09:06:47;98079.31;;;18.02;80.71
20350;BME280;10332;50.208;18.988;2023-06-14T09:09:20;98075.44;;;18.14;80.67
20350;BME280;10332;50.208;18.988;2023-06-14T09:11:50;98078.00;;;18.24;80.22
20350;BME280;10332;50.208;18.988;2023-06-14T09:14:23;98079.81;;;18.23;80.28
20350;BME280;10332;50.208;18.988;2023-06-14T09:16:56;98078.78;;;18.16;80.86
20350;BME280;10332;50.208;18.988;2023-06-14T09:19:24;98080.81;;;18.22;81.11
20350;BME280;10332;50.208;18.988;2023-06-14T09:21:52;98081.44;;;18.16;81.14
20350;BME280;10332;50.208;18.988;2023-06-14T09:24:20;98078.53;;;18.27;81.10
20350;BME280;10332;50.208;18.988;2023-06-14T09:26:55;98079.69;;;18.25;80.81
20350;BME280;10332;50.208;18.988;2023-06-14T09:29:22;98082.03;;;18.54;80.16
20350;BME280;10332;50.208;18.988;2023-06-14T09:31:51;98075.72;;;18.98;79.01
20350;BME280;10332;50.208;18.988;2023-06-14T09:34:18;98077.63;;;19.14;78.81
20350;BME280;10332;50.208;18.988;2023-06-14T09:36:50;98081.22;;;19.05;78.88
20350;BME280;10332;50.208;18.988;2023-06-14T09:39:18;98075.03;;;18.88;79.69
20350;BME280;10332;50.208;18.988;2023-06-14T09:41:46;98080.72;;;18.76;80.11
20350;BME280;10332;50.208;18.988;2023-06-14T09:44:13;98080.56;;;18.59;80.14
20350;BME280;10332;50.208;18.988;2023-06-14T09:46:48;98084.84;;;18.52;80.38
20350;BME280;10332;50.208;18.988;2023-06-14T09:49:17;98084.16;;;18.50;80.34
20350;BME280;10332;50.208;18.988;2023-06-14T09:51:50;98082.59;;;18.39;80.64
20350;BME280;10332;50.208;18.988;2023-06-14T09:54:22;98076.41;;;18.31;80.98
20350;BME280;10332;50.208;18.988;2023-06-14T09:56:53;98078.72;;;18.26;80.73
20350;BME280;10332;50.208;18.988;2023-06-14T09:59:29;98083.53;;;18.12;81.03
20350;BME280;10332;50.208;18.988;2023-06-14T10:02:06;98088.97;;;18.11;81.25
20350;BME280;10332;50.208;18.988;2023-06-14T10:04:37;98084.16;;;18.06;81.42
20350;BME280;10332;50.208;18.988;2023-06-14T10:07:07;98090.88;;;18.01;80.68
20350;BME280;10332;50.208;18.988;2023-06-14T10:09:35;98092.53;;;17.84;81.44
20350;BME280;10332;50.208;18.988;2023-06-14T10:12:04;98084.84;;;17.73;81.97
20350;BME280;10332;50.208;18.988;2023-06-14T10:14:33;98089.44;;;17.71;82.18
20350;BME280;10332;50.208;18.988;2023-06-14T10:17:09;98088.56;;;17.70;82.29
20350;BME280;10332;50.208;18.988;2023-06-14T10:19:48;98082.94;;;17.83;82.39
20350;BME280;10332;50.208;18.988;2023-06-14T10:22:32;98089.56;;;18.05;81.61
20350;BME280;10332;50.208;18.988;2023-06-14T10:25:06;98089.78;;;18.29;81.28
20350;BME280;10332;50.208;18.988;2023-06-14T10:27:35;98092.47;;;18.55;80.29
20350;BME280;10332;50.208;18.988;2023-06-14T10:30:06;98083.03;;;18.70;80.04
20350;BME280;10332;50.208;18.988;2023-06-14T10:32:35;98089.63;;;18.75;79.56
20350;BME280;10332;50.208;18.988;2023-06-14T10:35:06;98086.00;;;19.02;78.82
20350;BME280;10332;50.208;18.988;2023-06-14T10:37:35;98090.63;;;19.92;76.20
20350;BME280;10332;50.208;18.988;2023-06-14T10:40:03;98086.22;;;21.13;73.37
20350;BME280;10332;50.208;18.988;2023-06-14T10:42:33;98087.47;;;21.96;71.27
20350;BME280;10332;50.208;18.988;2023-06-14T10:45:01;98075.84;;;23.10;68.71
20350;BME280;10332;50.208;18.988;2023-06-14T10:47:34;98073.75;;;23.56;66.10
20350;BME280;10332;50.208;18.988;2023-06-14T10:50:09;98087.38;;;24.40;63.50
20350;BME280;10332;50.208;18.988;2023-06-14T10:52:40;98080.75;;;24.57;62.98
20350;BME280;10332;50.208;18.988;2023-06-14T10:55:17;98077.72;;;24.39;62.68
20350;BME280;10332;50.208;18.988;2023-06-14T10:57:54;98071.72;;;23.73;60.55
20350;BME280;10332;50.208;18.988;2023-06-14T11:00:29;98067.78;;;23.69;61.99
20350;BME280;10332;50.208;18.988;2023-06-14T11:05:55;98064.09;;;23.70;61.89
20350;BME280;10332;50.208;18.988;2023-06-14T11:09:12;98062.28;;;23.56;58.28
20350;BME280;10332;50.208;18.988;2023-06-14T11:11:37;98064.25;;;23.32;60.33
20350;BME280;10332;50.208;18.988;2023-06-14T11:14:06;98058.31;;;22.86;60.76
20350;BME280;10332;50.208;18.988;2023-06-14T11:16:34;98063.63;;;22.86;60.36
20350;BME280;10332;50.208;18.988;2023-06-14T11:19:02;98057.25;;;23.31;60.09
20350;BME280;10332;50.208;18.988;2023-06-14T11:21:33;98053.25;;;23.57;59.08
20350;BME280;10332;50.208;18.988;2023-06-14T11:24:01;98070.09;;;23.93;58.47
20350;BME280;10332;50.208;18.988;2023-06-14T11:26:30;98060.81;;;23.89;58.88
20350;BME280;10332;50.208;18.988;2023-06-14T11:29:00;98062.00;;;24.08;57.16
20350;BME280;10332;50.208;18.988;2023-06-14T11:31:28;98068.00;;;24.10;57.24
20350;BME280;10332;50.208;18.988;2023-06-14T11:33:59;98061.91;;;24.38;56.30
20350;BME280;10332;50.208;18.988;2023-06-14T11:36:31;98061.66;;;24.32;57.60
20350;BME280;10332;50.208;18.988;2023-06-14T11:39:04;98062.00;;;24.29;57.81
20350;BME280;10332;50.208;18.988;2023-06-14T11:41:44;98064.66;;;24.08;56.17
20350;BME280;10332;50.208;18.988;2023-06-14T11:44:12;98061.09;;;24.65;57.54
20350;BME280;10332;50.208;18.988;2023-06-14T11:46:40;98064.56;;;24.94;56.66
20350;BME280;10332;50.208;18.988;2023-06-14T11:49:08;98062.13;;;24.99;56.49
20350;BME280;10332;50.208;18.988;2023-06-14T11:51:37;98070.19;;;25.05;57.01
20350;BME280;10332;50.208;18.988;2023-06-14T11:54:06;98068.03;;;24.59;57.05
20350;BME280;10332;50.208;18.988;2023-06-14T11:56:34;98060.56;;;24.05;58.21
20350;BME280;10332;50.208;18.988;2023-06-14T11:59:03;98064.19;;;23.62;59.20
20350;BME280;10332;50.208;18.988;2023-06-14T12:01:36;98062.56;;;23.61;59.15
20350;BME280;10332;50.208;18.988;2023-06-14T12:04:06;98063.13;;;23.41;59.62
20350;BME280;10332;50.208;18.988;2023-06-14T12:06:34;98054.19;;;23.49;59.59
20350;BME280;10332;50.208;18.988;2023-06-14T12:09:08;98050.06;;;23.46;60.02
20350;BME280;10332;50.208;18.988;2023-06-14T12:11:41;98053.59;;;23.32;60.11
20350;BME280;10332;50.208;18.988;2023-06-14T12:14:09;98058.28;;;23.30;60.71
20350;BME280;10332;50.208;18.988;2023-06-14T12:16:39;98046.41;;;23.18;60.84
20350;BME280;10332;50.208;18.988;2023-06-14T12:19:15;98043.88;;;23.10;60.95
20350;BME280;10332;50.208;18.988;2023-06-14T12:21:47;98038.09;;;23.06;61.56
20350;BME280;10332;50.208;18.988;2023-06-14T12:24:19;98038.66;;;23.02;61.71
20350;BME280;10332;50.208;18.988;2023-06-14T12:26:47;98037.06;;;23.07;61.89
20350;BME280;10332;50.208;18.988;2023-06-14T12:29:14;98033.22;;;23.10;62.04
20350;BME280;10332;50.208;18.988;2023-06-14T12:31:42;98041.97;;;23.04;61.73
20350;BME280;10332;50.208;18.988;2023-06-14T12:34:10;98034.50;;;23.14;62.11
20350;BME280;10332;50.208;18.988;2023-06-14T12:36:38;98032.91;;;23.34;61.41
20350;BME280;10332;50.208;18.988;2023-06-14T12:39:12;98032.28;;;23.54;60.90
20350;BME280;10332;50.208;18.988;2023-06-14T12:41:40;98030.56;;;23.61;60.62
20350;BME280;10332;50.208;18.988;2023-06-14T12:44:13;98029.25;;;23.71;60.29
20350;BME280;10332;50.208;18.988;2023-06-14T12:46:43;98021.13;;;24.01;60.17
20350;BME280;10332;50.208;18.988;2023-06-14T12:49:12;98021.09;;;24.22;59.83
20350;BME280;10332;50.208;18.988;2023-06-14T12:51:40;98022.31;;;24.20;59.24
20350;BME280;10332;50.208;18.988;2023-06-14T12:54:08;98027.38;;;24.15;58.59
20350;BME280;10332;50.208;18.988;2023-06-14T12:56:35;98023.84;;;24.07;57.97
20350;BME280;10332;50.208;18.988;2023-06-14T12:59:03;98018.38;;;24.16;57.79
20350;BME280;10332;50.208;18.988;2023-06-14T13:01:31;98013.28;;;24.42;57.51
20350;BME280;10332;50.208;18.988;2023-06-14T13:03:58;98009.53;;;24.71;57.02
20350;BME280;10332;50.208;18.988;2023-06-14T13:06:26;98005.56;;;24.95;56.69